Time;durP1;ratioP1;P1;durP2;ratioP2;P2;SDS_P1;SDS_P2;PMS_P1;PMS_P2;Temp;Humidity;BMP_temperature;BMP_pressure;BME280_temperature;BME280_humidity;BME280_pressure;Samples;Min_cycle;Max_cycle;Signal;HPM_P1;HPM_P2
2022/01/11 00:00:17;;;;;;;26.40;17.50;;;5.90;99.90;;;;;;5002883;28;21730;-79
2022/01/11 00:02:44;;;;;;;24.13;15.00;;;5.90;99.90;;;;;;5006564;28;21241;-78
2022/01/11 00:05:19;;;;;;;23.07;15.80;;;5.90;99.90;;;;;;5007149;28;20648;-80
2022/01/11 00:07:45;;;;;;;23.17;15.50;;;5.90;99.90;;;;;;5008004;28;20857;-79
2022/01/11 00:10:14;;;;;;;25.17;15.60;;;5.90;99.90;;;;;;5006175;28;20661;-79
2022/01/11 00:12:40;;;;;;;22.47;15.03;;;5.90;99.90;;;;;;5010176;28;20201;-78
2022/01/11 00:15:08;;;;;;;26.37;17.60;;;5.90;99.90;;;;;;5001051;28;21090;-79
2022/01/11 00:17:37;;;;;;;22.80;15.97;;;5.90;99.90;;;;;;5009430;28;20201;-79
2022/01/11 00:20:04;;;;;;;26.63;16.13;;;5.90;99.90;;;;;;5000371;28;20647;-80
2022/01/11 00:22:33;;;;;;;23.47;15.00;;;5.90;99.90;;;;;;5007856;28;20653;-79
2022/01/11 00:25:00;;;;;;;23.30;15.07;;;5.90;99.90;;;;;;5009401;28;21039;-79
2022/01/11 00:27:26;;;;;;;21.60;14.27;;;5.90;99.90;;;;;;5010363;28;20589;-79
2022/01/11 00:29:57;;;;;;;23.13;13.90;;;5.90;99.90;;;;;;5006060;28;20639;-78
2022/01/11 00:32:38;;;;;;;21.13;14.17;;;5.90;99.90;;;;;;5003869;28;20207;-79
2022/01/11 00:35:06;;;;;;;21.60;14.00;;;5.90;99.90;;;;;;5009414;28;21253;-79
2022/01/11 00:37:34;;;;;;;21.17;14.03;;;5.90;99.90;;;;;;5010748;28;20765;-81
2022/01/11 00:40:04;;;;;;;21.13;15.00;;;5.90;99.90;;;;;;5008291;28;20674;-80
2022/01/11 00:42:32;;;;;;;20.77;14.13;;;5.90;99.90;;;;;;5009827;28;20659;-80
2022/01/11 00:45:00;;;;;;;22.20;13.97;;;5.90;99.90;;;;;;5007985;28;20619;-79
2022/01/11 00:47:26;;;;;;;17.47;12.30;;;5.90;99.90;;;;;;5006873;28;20627;-78
2022/01/11 00:49:53;;;;;;;19.33;13.07;;;5.90;99.90;;;;;;5006898;28;20644;-78
2022/01/11 00:52:22;;;;;;;22.77;14.67;;;5.90;99.90;;;;;;5008729;28;20200;-78
2022/01/11 00:54:48;;;;;;;19.77;13.40;;;5.90;99.90;;;;;;5000787;28;20654;-78
2022/01/11 00:57:13;;;;;;;22.90;13.80;;;5.90;99.90;;;;;;5012298;28;20624;-79
2022/01/11 00:59:40;;;;;;;19.53;13.23;;;5.90;99.90;;;;;;5010345;28;20225;-79
2022/01/11 01:02:06;;;;;;;22.10;12.90;;;5.90;99.90;;;;;;5003853;28;20194;-78
2022/01/11 01:04:32;;;;;;;18.13;12.10;;;5.80;99.90;;;;;;5010747;28;20967;-78
2022/01/11 01:06:58;;;;;;;17.07;12.43;;;5.80;99.90;;;;;;5008178;28;20660;-80
2022/01/11 01:09:27;;;;;;;21.57;14.03;;;5.80;99.90;;;;;;4999134;28;20661;-78
2022/01/11 01:11:53;;;;;;;17.93;12.47;;;5.80;99.90;;;;;;5005687;28;20412;-79
2022/01/11 01:14:18;;;;;;;19.33;12.83;;;5.80;99.90;;;;;;5003142;28;20690;-78
2022/01/11 01:16:44;;;;;;;20.50;13.87;;;5.80;99.90;;;;;;5005502;28;20206;-81
2022/01/11 01:19:10;;;;;;;19.40;12.50;;;5.70;99.90;;;;;;5002298;28;20217;-78
2022/01/11 01:21:39;;;;;;;20.57;12.87;;;5.70;99.90;;;;;;5008838;28;20371;-78
2022/01/11 01:24:07;;;;;;;17.67;12.53;;;5.90;99.90;;;;;;5003222;28;20232;-78
2022/01/11 01:26:34;;;;;;;21.23;13.57;;;5.60;99.90;;;;;;5005146;28;20659;-81
2022/01/11 01:29:00;;;;;;;17.83;12.27;;;5.60;99.90;;;;;;5008922;28;20644;-79
2022/01/11 01:31:29;;;;;;;20.77;13.50;;;5.60;99.90;;;;;;5005751;28;20621;-80
2022/01/11 01:33:56;;;;;;;21.40;13.50;;;5.60;99.90;;;;;;5002212;28;20629;-78
2022/01/11 01:36:23;;;;;;;18.27;11.70;;;5.50;99.90;;;;;;5008067;28;20667;-78
2022/01/11 01:38:49;;;;;;;19.30;12.77;;;5.60;99.90;;;;;;5004607;28;21082;-80
2022/01/11 01:41:17;;;;;;;23.30;14.13;;;5.60;99.90;;;;;;5002899;28;21508;-80
2022/01/11 01:43:47;;;;;;;19.03;12.27;;;5.60;99.90;;;;;;5008134;28;20648;-79
2022/01/11 01:46:14;;;;;;;21.30;13.80;;;5.60;99.90;;;;;;5002322;28;20656;-81
2022/01/11 01:48:39;;;;;;;21.93;13.50;;;5.50;99.90;;;;;;5002842;28;20760;-78
2022/01/11 01:51:07;;;;;;;21.00;13.57;;;5.50;99.90;;;;;;5009217;28;20659;-79
2022/01/11 01:53:35;;;;;;;19.10;13.33;;;5.50;99.90;;;;;;5006982;28;20190;-79
2022/01/11 01:56:02;;;;;;;19.23;12.80;;;5.50;99.90;;;;;;5006430;28;20653;-78
2022/01/11 01:58:29;;;;;;;18.23;11.70;;;5.50;99.90;;;;;;5004455;28;20935;-79
2022/01/11 02:01:02;;;;;;;21.13;13.90;;;5.50;99.90;;;;;;5004663;28;20614;-79
2022/01/11 02:03:30;;;;;;;22.00;13.50;;;5.50;99.90;;;;;;5008304;28;21155;-79
2022/01/11 02:05:56;;;;;;;25.50;13.43;;;5.60;99.90;;;;;;5024363;28;22327;-78
2022/01/11 02:08:24;;;;;;;22.60;14.20;;;5.50;99.90;;;;;;5007065;28;20683;-79
2022/01/11 02:10:49;;;;;;;22.53;14.50;;;5.50;99.90;;;;;;5004238;28;20658;-79
2022/01/11 02:13:15;;;;;;;21.00;13.40;;;5.60;99.90;;;;;;5005640;28;20663;-79
2022/01/11 02:15:41;;;;;;;21.07;13.80;;;5.50;99.90;;;;;;5000033;28;20246;-80
2022/01/11 02:18:20;;;;;;;21.97;14.60;;;5.50;99.90;;;;;;5005522;28;20197;-79
2022/01/11 02:20:49;;;;;;;23.90;15.00;;;5.40;99.90;;;;;;5007300;28;20637;-79
2022/01/11 02:23:16;;;;;;;22.27;15.07;;;5.40;99.90;;;;;;5007020;28;20659;-79
2022/01/11 02:25:42;;;;;;;21.50;14.17;;;5.40;99.90;;;;;;5007968;28;20660;-78
2022/01/11 02:28:11;;;;;;;20.83;13.57;;;5.50;99.90;;;;;;5004455;28;21446;-78
2022/01/11 02:30:36;;;;;;;22.40;13.80;;;5.50;99.90;;;;;;5005102;28;20876;-79
2022/01/11 02:33:06;;;;;;;21.30;13.77;;;5.40;99.90;;;;;;5008114;28;20624;-79
2022/01/11 02:35:31;;;;;;;22.80;13.53;;;5.40;99.90;;;;;;5006483;28;20233;-78
2022/01/11 02:37:57;;;;;;;23.00;15.30;;;5.50;99.90;;;;;;5004526;28;20621;-79
2022/01/11 02:40:22;;;;;;;19.90;13.80;;;5.40;99.90;;;;;;5007205;28;20300;-79
2022/01/11 02:42:48;;;;;;;21.63;13.07;;;5.40;99.90;;;;;;5005498;28;20217;-81
2022/01/11 02:45:16;;;;;;;24.17;13.87;;;5.50;99.90;;;;;;5002105;28;20205;-80
2022/01/11 02:47:44;;;;;;;19.93;13.57;;;5.40;99.90;;;;;;5002578;28;20224;-78
2022/01/11 02:50:10;;;;;;;21.60;13.97;;;5.40;99.90;;;;;;5004140;28;20828;-78
2022/01/11 02:52:37;;;;;;;22.97;13.83;;;5.40;99.90;;;;;;5004508;28;20627;-79
2022/01/11 02:55:06;;;;;;;20.73;13.70;;;5.40;99.90;;;;;;5007060;28;20643;-79
2022/01/11 02:57:32;;;;;;;21.37;13.27;;;5.40;99.90;;;;;;5023182;28;20620;-79
2022/01/11 02:59:58;;;;;;;23.97;14.73;;;5.40;99.90;;;;;;4999201;28;20715;-79
2022/01/11 03:02:23;;;;;;;21.93;13.20;;;5.40;99.90;;;;;;5005255;28;20220;-78
2022/01/11 03:04:49;;;;;;;22.67;13.70;;;5.40;99.90;;;;;;5008157;28;20193;-78
2022/01/11 03:07:21;;;;;;;23.63;14.40;;;5.40;99.90;;;;;;5006923;28;20177;-79
2022/01/11 03:12:21;;;;;;;24.00;13.93;;;5.40;99.90;;;;;;5006260;28;21174;-78
2022/01/11 03:14:47;;;;;;;23.80;13.90;;;5.40;99.90;;;;;;5001569;28;20906;-78
2022/01/11 03:17:12;;;;;;;22.90;13.20;;;5.30;99.90;;;;;;5006844;28;21221;-79
2022/01/11 03:19:38;;;;;;;23.37;13.80;;;5.30;99.90;;;;;;5018788;28;20236;-78
2022/01/11 03:22:04;;;;;;;24.27;14.53;;;5.30;99.90;;;;;;5002747;28;20194;-79
2022/01/11 03:24:29;;;;;;;24.90;14.87;;;5.30;99.90;;;;;;5007760;28;20185;-79
2022/01/11 03:26:55;;;;;;;21.17;13.03;;;5.30;99.90;;;;;;5005025;28;20236;-78
2022/01/11 03:29:20;;;;;;;26.03;15.57;;;5.30;99.90;;;;;;5003049;28;20241;-79
2022/01/11 03:31:46;;;;;;;25.30;14.40;;;5.40;99.90;;;;;;5004597;28;21100;-79
2022/01/11 03:34:18;;;;;;;22.37;14.10;;;5.40;99.90;;;;;;5008089;28;20181;-79
2022/01/11 03:36:43;;;;;;;25.17;14.90;;;5.40;99.90;;;;;;5008932;28;20213;-78
2022/01/11 03:39:09;;;;;;;23.80;14.67;;;5.40;99.90;;;;;;5008058;28;20649;-79
2022/01/11 03:41:35;;;;;;;25.30;14.93;;;5.40;99.90;;;;;;5003152;28;20410;-78
2022/01/11 03:44:00;;;;;;;22.73;13.73;;;5.40;99.90;;;;;;5006410;28;20725;-78
2022/01/11 03:46:26;;;;;;;23.87;14.40;;;5.40;99.90;;;;;;5003548;28;20296;-81
2022/01/11 03:48:51;;;;;;;25.70;14.40;;;5.40;99.90;;;;;;5001517;28;20217;-79
2022/01/11 03:51:17;;;;;;;27.03;14.90;;;5.30;99.90;;;;;;5005698;28;20323;-79
2022/01/11 03:54:22;;;;;;;26.40;14.50;;;5.40;99.90;;;;;;5008649;28;20185;-79
2022/01/11 03:56:35;;;;;;;25.70;15.30;;;5.40;99.90;;;;;;5006249;28;20705;-79
2022/01/11 03:59:06;;;;;;;25.20;13.47;;;5.60;99.90;;;;;;5006241;28;20637;-79
2022/01/11 04:01:35;;;;;;;25.60;15.20;;;5.40;99.90;;;;;;5021494;28;20616;-80
2022/01/11 04:04:00;;;;;;;22.30;13.30;;;5.40;99.90;;;;;;5009812;28;20727;-78
2022/01/11 04:06:27;;;;;;;26.87;14.67;;;5.40;99.90;;;;;;5009297;28;20684;-78
2022/01/11 04:08:54;;;;;;;25.77;16.27;;;5.40;99.90;;;;;;5003879;28;20232;-78
2022/01/11 04:11:19;;;;;;;27.87;15.67;;;5.40;99.90;;;;;;5027388;28;20612;-79
2022/01/11 04:13:46;;;;;;;28.33;16.10;;;5.50;99.90;;;;;;5006530;28;20628;-78
2022/01/11 04:16:12;;;;;;;29.33;15.40;;;5.50;99.90;;;;;;5010698;28;20726;-80
2022/01/11 04:18:37;;;;;;;31.13;15.50;;;5.50;99.90;;;;;;5010974;28;21031;-78
2022/01/11 04:21:04;;;;;;;27.50;16.07;;;5.50;99.90;;;;;;5009551;28;20624;-78
2022/01/11 04:23:29;;;;;;;26.63;16.40;;;5.50;99.90;;;;;;5005389;28;20232;-81
2022/01/11 04:25:55;;;;;;;28.40;16.20;;;5.50;99.90;;;;;;5011509;28;20660;-78
2022/01/11 04:28:23;;;;;;;33.80;18.43;;;5.50;99.90;;;;;;5008248;28;20240;-78
2022/01/11 04:30:52;;;;;;;27.20;15.90;;;5.50;99.90;;;;;;5007288;28;20239;-80
2022/01/11 04:33:19;;;;;;;28.87;17.03;;;5.50;99.90;;;;;;5025831;28;20691;-80
2022/01/11 04:35:48;;;;;;;25.57;15.40;;;5.40;99.90;;;;;;5010613;28;20639;-81
2022/01/11 04:38:20;;;;;;;28.40;16.70;;;5.50;99.90;;;;;;5010064;28;20738;-81
2022/01/11 04:40:46;;;;;;;30.67;17.00;;;5.50;99.90;;;;;;5006737;28;20632;-79
2022/01/11 04:43:11;;;;;;;26.13;15.30;;;5.50;99.90;;;;;;5011879;28;20979;-79
2022/01/11 04:45:37;;;;;;;33.80;16.80;;;5.50;99.90;;;;;;5007801;28;20277;-79
2022/01/11 04:48:03;;;;;;;31.93;15.83;;;5.50;99.90;;;;;;5008422;28;20412;-80
2022/01/11 04:50:29;;;;;;;35.27;16.87;;;5.50;99.90;;;;;;5002830;28;20637;-78
2022/01/11 04:52:55;;;;;;;28.87;16.30;;;5.50;99.90;;;;;;5008938;28;20650;-79
2022/01/11 04:55:21;;;;;;;27.73;16.63;;;5.50;99.90;;;;;;5005808;28;20666;-79
2022/01/11 04:57:47;;;;;;;32.23;17.13;;;5.50;99.90;;;;;;5009649;28;20632;-78
2022/01/11 05:00:15;;;;;;;30.70;17.00;;;5.60;99.90;;;;;;5004741;28;20221;-78
2022/01/11 05:02:42;;;;;;;30.10;16.20;;;5.80;99.90;;;;;;5007263;28;21417;-78
2022/01/11 05:05:08;;;;;;;29.97;15.80;;;5.50;99.90;;;;;;5007609;28;20655;-80
2022/01/11 05:07:33;;;;;;;32.40;15.90;;;5.50;99.90;;;;;;5004463;28;20604;-79
2022/01/11 05:09:59;;;;;;;30.23;15.43;;;5.60;99.90;;;;;;5006243;28;20632;-79
2022/01/11 05:12:25;;;;;;;29.80;14.37;;;5.60;99.90;;;;;;5007352;28;20561;-82
2022/01/11 05:14:50;;;;;;;34.03;16.47;;;5.60;99.90;;;;;;5005817;28;20524;-78
2022/01/11 05:17:16;;;;;;;32.17;14.50;;;5.60;99.90;;;;;;5011137;28;20217;-78
2022/01/11 05:19:42;;;;;;;34.50;15.33;;;5.60;99.90;;;;;;5007110;28;20247;-79
2022/01/11 05:22:07;;;;;;;30.63;15.47;;;5.50;99.90;;;;;;5006488;28;20189;-78
2022/01/11 05:24:33;;;;;;;27.33;14.60;;;5.50;99.90;;;;;;5009069;28;20263;-78
2022/01/11 05:26:58;;;;;;;31.80;14.70;;;5.50;99.90;;;;;;5005173;28;20205;-80
2022/01/11 05:29:24;;;;;;;29.30;15.70;;;5.50;99.90;;;;;;5010417;28;20228;-78
2022/01/11 05:31:50;;;;;;;30.53;16.00;;;5.50;99.90;;;;;;5009073;28;20193;-79
2022/01/11 05:34:16;;;;;;;31.70;15.17;;;5.40;99.90;;;;;;5008612;28;20213;-78
2022/01/11 05:36:41;;;;;;;28.60;15.53;;;5.40;99.90;;;;;;5008162;28;20217;-78
2022/01/11 05:39:07;;;;;;;25.70;13.47;;;5.40;99.90;;;;;;5019337;28;20237;-79
2022/01/11 05:41:33;;;;;;;29.37;13.80;;;5.50;99.90;;;;;;5004437;28;20549;-80
2022/01/11 05:43:59;;;;;;;29.47;14.40;;;5.50;99.90;;;;;;5010858;28;20222;-78
2022/01/11 05:46:25;;;;;;;26.17;14.90;;;5.50;99.90;;;;;;5009614;28;20640;-79
2022/01/11 05:48:50;;;;;;;27.50;13.90;;;5.50;99.90;;;;;;5010587;28;20632;-79
2022/01/11 05:51:16;;;;;;;26.70;13.27;;;5.50;99.90;;;;;;5010126;28;20200;-78
2022/01/11 05:53:43;;;;;;;30.17;14.13;;;5.50;99.90;;;;;;5008631;28;20181;-79
2022/01/11 05:56:09;;;;;;;28.30;14.10;;;5.50;99.90;;;;;;5008175;28;20996;-78
2022/01/11 05:58:35;;;;;;;24.03;12.60;;;5.60;99.90;;;;;;4998484;28;20652;-79
2022/01/11 06:01:01;;;;;;;29.77;14.53;;;5.60;99.90;;;;;;5004384;28;20632;-79
2022/01/11 06:03:27;;;;;;;23.00;12.63;;;5.60;99.90;;;;;;5005947;28;20663;-79
2022/01/11 06:05:53;;;;;;;23.70;13.00;;;5.60;99.90;;;;;;5011105;28;20965;-80
2022/01/11 06:08:19;;;;;;;29.57;13.73;;;5.60;99.90;;;;;;5004044;28;20202;-78
2022/01/11 06:10:45;;;;;;;27.67;13.60;;;5.60;99.90;;;;;;5006080;28;20621;-79
2022/01/11 06:13:11;;;;;;;27.90;13.80;;;5.50;99.90;;;;;;5003232;28;20204;-81
2022/01/11 06:15:37;;;;;;;23.40;12.80;;;5.50;99.90;;;;;;5001268;28;20731;-85
2022/01/11 06:18:04;;;;;;;29.43;14.00;;;5.50;99.90;;;;;;5005395;28;20634;-83
2022/01/11 06:20:30;;;;;;;30.03;15.93;;;5.50;99.90;;;;;;4999510;28;20735;-81
2022/01/11 06:22:55;;;;;;;24.63;12.20;;;5.40;99.90;;;;;;5008222;28;20689;-80
2022/01/11 06:25:21;;;;;;;25.80;13.03;;;5.50;99.90;;;;;;5005237;28;20213;-78
2022/01/11 06:27:47;;;;;;;25.50;13.30;;;5.50;99.90;;;;;;5000962;28;20205;-79
2022/01/11 06:30:14;;;;;;;20.50;11.43;;;5.40;99.90;;;;;;4992842;28;20889;-82
2022/01/11 06:32:43;;;;;;;20.73;12.00;;;5.40;99.90;;;;;;5011249;28;20265;-78
2022/01/11 06:35:09;;;;;;;21.63;12.60;;;5.40;99.90;;;;;;5001628;28;21208;-80
2022/01/11 06:37:35;;;;;;;24.77;12.20;;;5.40;99.90;;;;;;4996476;28;20609;-79
2022/01/11 06:40:03;;;;;;;19.03;10.70;;;5.20;99.90;;;;;;4994514;28;20647;-79
2022/01/11 06:42:29;;;;;;;23.13;12.70;;;5.30;99.90;;;;;;4998494;28;20651;-80
2022/01/11 06:44:54;;;;;;;18.87;11.93;;;5.30;99.90;;;;;;4995696;28;20612;-79
2022/01/11 06:47:20;;;;;;;22.50;12.73;;;5.20;99.90;;;;;;5003819;28;20280;-79
2022/01/11 06:49:45;;;;;;;23.90;11.77;;;5.30;99.90;;;;;;4998235;28;20271;-80
2022/01/11 06:52:11;;;;;;;23.90;12.00;;;5.30;99.90;;;;;;5002533;28;20260;-79
2022/01/11 06:54:37;;;;;;;21.77;12.03;;;5.30;99.90;;;;;;5002500;28;20198;-79
2022/01/11 06:57:03;;;;;;;23.40;12.10;;;5.30;99.90;;;;;;5001729;28;20296;-80
2022/01/11 06:59:28;;;;;;;21.93;13.40;;;5.30;99.90;;;;;;5003030;28;20240;-79
2022/01/11 07:01:54;;;;;;;24.67;13.93;;;5.20;99.90;;;;;;5003715;28;20612;-80
2022/01/11 07:04:19;;;;;;;22.33;11.03;;;5.20;99.90;;;;;;4990819;28;20255;-79
2022/01/11 07:06:45;;;;;;;23.73;12.90;;;5.30;99.90;;;;;;4996986;28;20229;-79
2022/01/11 07:09:11;;;;;;;20.07;10.60;;;5.30;99.90;;;;;;5002797;28;20232;-78
2022/01/11 07:11:36;;;;;;;24.13;11.20;;;5.40;99.90;;;;;;5001265;28;20194;-81
2022/01/11 07:14:03;;;;;;;22.60;11.47;;;5.40;99.90;;;;;;5000585;28;20208;-79
2022/01/11 07:16:29;;;;;;;20.20;12.60;;;5.40;99.90;;;;;;5007424;28;20439;-78
2022/01/11 07:18:55;;;;;;;21.43;12.33;;;5.40;99.90;;;;;;5000629;28;21260;-79
2022/01/11 07:21:20;;;;;;;23.90;12.60;;;5.40;99.90;;;;;;5002701;28;20720;-79
2022/01/11 07:23:46;;;;;;;24.00;13.50;;;5.50;99.90;;;;;;5004396;28;20216;-79
2022/01/11 07:26:12;;;;;;;22.27;13.20;;;5.50;99.90;;;;;;5003723;28;20245;-79
2022/01/11 07:28:37;;;;;;;25.87;12.63;;;5.50;99.90;;;;;;5002330;28;20336;-78
2022/01/11 07:31:03;;;;;;;25.97;12.93;;;5.50;99.90;;;;;;5008474;28;20182;-78
2022/01/11 07:33:29;;;;;;;29.10;13.47;;;5.60;99.90;;;;;;5009635;28;20204;-79
2022/01/11 07:35:55;;;;;;;21.40;12.73;;;5.60;99.90;;;;;;5007307;28;20811;-79
2022/01/11 07:38:20;;;;;;;21.60;12.03;;;5.60;99.90;;;;;;5007368;28;20200;-80
2022/01/11 07:40:46;;;;;;;27.67;11.97;;;5.60;99.90;;;;;;5008092;28;20722;-81
2022/01/11 07:43:12;;;;;;;25.20;11.30;;;5.50;99.90;;;;;;5002499;28;20244;-78
2022/01/11 07:45:37;;;;;;;22.53;11.50;;;5.40;99.90;;;;;;5010455;28;20304;-79
2022/01/11 07:48:03;;;;;;;21.60;12.70;;;5.40;99.90;;;;;;5007372;28;20186;-80
2022/01/11 07:50:29;;;;;;;23.83;13.03;;;5.40;99.90;;;;;;5003579;28;20259;-79
2022/01/11 07:52:54;;;;;;;24.40;12.10;;;5.50;99.90;;;;;;5003965;28;20820;-79
2022/01/11 07:55:20;;;;;;;21.00;12.37;;;5.40;99.90;;;;;;5009306;28;20206;-80
2022/01/11 07:57:46;;;;;;;25.03;12.37;;;5.30;99.90;;;;;;5005032;28;20185;-79
2022/01/11 08:00:12;;;;;;;25.40;13.70;;;5.20;99.90;;;;;;5008187;28;20229;-79
2022/01/11 08:02:38;;;;;;;24.50;11.67;;;5.20;99.90;;;;;;5002054;28;20637;-79
2022/01/11 08:05:05;;;;;;;22.67;13.30;;;5.00;99.90;;;;;;5003306;28;20600;-79
2022/01/11 08:07:31;;;;;;;25.37;12.83;;;5.10;99.90;;;;;;5002671;28;20640;-79
2022/01/11 08:09:57;;;;;;;24.37;12.57;;;5.00;99.90;;;;;;5003270;28;20633;-80
2022/01/11 08:12:23;;;;;;;23.03;12.93;;;5.00;99.90;;;;;;5005567;28;20631;-79
2022/01/11 08:14:48;;;;;;;21.83;11.60;;;5.00;99.90;;;;;;5004658;28;20695;-79
2022/01/11 08:17:18;;;;;;;21.60;12.37;;;5.00;99.90;;;;;;5007356;28;20846;-79
2022/01/11 08:19:44;;;;;;;23.40;11.67;;;5.00;99.90;;;;;;5003191;28;20225;-83
2022/01/11 08:22:10;;;;;;;23.67;11.97;;;5.00;99.90;;;;;;5000249;28;20826;-78
2022/01/11 08:24:38;;;;;;;23.27;12.63;;;4.90;99.90;;;;;;5005514;28;20704;-78
2022/01/11 08:27:04;;;;;;;24.23;12.57;;;5.00;99.90;;;;;;5004292;28;21242;-79
2022/01/11 08:29:30;;;;;;;25.40;11.80;;;5.00;99.90;;;;;;5005401;28;20636;-82
2022/01/11 08:31:56;;;;;;;23.40;11.40;;;5.00;99.90;;;;;;5007863;28;20699;-79
2022/01/11 08:34:21;;;;;;;24.17;11.20;;;5.10;99.90;;;;;;5011801;28;20190;-82
2022/01/11 08:36:49;;;;;;;22.57;12.47;;;5.10;99.90;;;;;;5009939;28;20666;-79
2022/01/11 08:39:15;;;;;;;23.40;12.53;;;5.10;99.90;;;;;;5004163;28;20236;-78
2022/01/11 08:41:41;;;;;;;23.97;12.67;;;5.20;99.90;;;;;;5004087;28;20670;-80
2022/01/11 08:44:10;;;;;;;27.43;12.30;;;5.10;99.90;;;;;;5006190;28;20655;-79
2022/01/11 08:46:38;;;;;;;27.53;14.57;;;5.00;99.90;;;;;;5003605;28;20675;-79
2022/01/11 08:49:04;;;;;;;29.73;13.07;;;5.10;99.90;;;;;;5002624;28;20679;-79
2022/01/11 08:51:30;;;;;;;24.10;11.30;;;5.10;99.90;;;;;;5003511;28;20612;-80
2022/01/11 08:53:56;;;;;;;25.93;12.50;;;5.10;99.90;;;;;;5003493;28;20732;-81
2022/01/11 08:56:21;;;;;;;21.23;11.27;;;5.10;99.90;;;;;;5004777;28;20209;-79
2022/01/11 08:58:47;;;;;;;23.10;11.60;;;5.20;99.90;;;;;;5002540;28;20279;-79
2022/01/11 09:01:12;;;;;;;25.03;12.67;;;5.20;99.90;;;;;;5003334;28;20197;-79
2022/01/11 09:03:39;;;;;;;21.37;12.03;;;5.20;99.90;;;;;;5010711;28;20577;-80
2022/01/11 09:06:07;;;;;;;19.80;11.23;;;5.20;99.90;;;;;;5005551;28;20217;-80
2022/01/11 09:08:34;;;;;;;20.07;11.93;;;5.20;99.90;;;;;;5000763;28;21183;-79
2022/01/11 09:10:59;;;;;;;23.17;12.30;;;5.30;99.90;;;;;;5000104;28;20608;-80
2022/01/11 09:13:26;;;;;;;27.77;13.27;;;5.20;99.90;;;;;;5004691;28;20648;-79
2022/01/11 09:15:52;;;;;;;19.80;11.20;;;5.20;99.90;;;;;;5004487;28;20217;-80
2022/01/11 09:18:18;;;;;;;22.90;10.97;;;5.20;99.90;;;;;;5018670;28;20651;-79
2022/01/11 09:20:44;;;;;;;15.43;10.10;;;5.30;99.90;;;;;;4999986;28;20612;-79
2022/01/11 09:23:10;;;;;;;19.33;9.70;;;5.30;99.90;;;;;;5002580;28;20232;-78
2022/01/11 09:25:35;;;;;;;20.57;10.63;;;5.30;99.90;;;;;;5003405;28;20241;-79
2022/01/11 09:28:01;;;;;;;16.83;9.50;;;5.30;99.90;;;;;;4999037;28;20202;-78
2022/01/11 09:30:27;;;;;;;18.87;11.20;;;5.30;99.90;;;;;;5000457;28;20809;-79
2022/01/11 09:32:52;;;;;;;23.23;12.00;;;5.30;99.90;;;;;;5004245;28;20626;-79
2022/01/11 09:35:18;;;;;;;23.10;10.77;;;5.40;99.90;;;;;;5005419;28;20229;-81
2022/01/11 09:37:46;;;;;;;20.30;11.20;;;5.50;99.90;;;;;;4998689;28;20202;-80
2022/01/11 09:40:12;;;;;;;21.40;11.40;;;5.50;99.90;;;;;;5002590;28;20302;-81
2022/01/11 09:42:39;;;;;;;22.03;11.50;;;5.50;99.90;;;;;;5003622;28;21016;-80
2022/01/11 09:45:06;;;;;;;23.40;11.83;;;5.40;99.90;;;;;;5003197;28;20624;-79
2022/01/11 09:47:32;;;;;;;21.80;11.20;;;5.30;99.90;;;;;;4995803;28;21416;-79
2022/01/11 09:49:58;;;;;;;18.43;11.07;;;5.30;99.90;;;;;;4999347;28;20652;-80
2022/01/11 09:52:26;;;;;;;20.07;11.00;;;5.30;99.90;;;;;;5000940;28;20635;-79
2022/01/11 09:54:53;;;;;;;20.20;11.07;;;5.30;99.90;;;;;;5007133;28;20323;-81
2022/01/11 09:57:18;;;;;;;21.73;10.73;;;5.40;99.90;;;;;;5004212;28;20633;-79
2022/01/11 09:59:44;;;;;;;20.37;11.10;;;5.40;99.90;;;;;;5008398;28;20643;-79
2022/01/11 10:02:12;;;;;;;21.17;11.73;;;5.30;99.90;;;;;;5002980;28;20193;-80
2022/01/11 10:04:38;;;;;;;20.00;11.00;;;5.40;99.90;;;;;;5000105;28;20221;-79
2022/01/11 10:07:07;;;;;;;23.60;13.20;;;5.30;99.90;;;;;;5001990;28;21119;-80
2022/01/11 10:09:48;;;;;;;19.97;11.40;;;5.30;99.90;;;;;;5003644;28;20743;-80
2022/01/11 10:12:15;;;;;;;22.63;11.80;;;5.50;99.90;;;;;;5000628;28;21575;-78
2022/01/11 10:14:55;;;;;;;17.53;10.90;;;5.50;99.90;;;;;;4999103;28;21238;-79
2022/01/11 10:17:23;;;;;;;20.80;11.03;;;5.60;99.90;;;;;;5002825;28;20620;-78
2022/01/11 10:20:08;;;;;;;18.03;11.50;;;5.60;99.90;;;;;;5001279;28;23688;-79
2022/01/11 10:22:43;;;;;;;20.40;11.13;;;5.70;99.90;;;;;;5001404;28;21257;-79
2022/01/11 10:25:09;;;;;;;14.60;9.70;;;5.70;99.90;;;;;;5007010;28;20701;-79
2022/01/11 10:27:35;;;;;;;22.50;11.20;;;5.70;99.90;;;;;;5004732;28;21010;-83
2022/01/11 10:30:13;;;;;;;22.23;11.20;;;5.70;99.90;;;;;;5001042;28;20227;-79
2022/01/11 10:32:41;;;;;;;19.07;10.57;;;5.70;99.90;;;;;;5004210;28;20628;-79
2022/01/11 10:35:19;;;;;;;19.73;10.23;;;5.80;99.90;;;;;;5005942;28;20668;-79
2022/01/11 10:37:51;;;;;;;20.13;10.30;;;5.80;99.90;;;;;;5001240;28;20670;-80
2022/01/11 10:40:21;;;;;;;15.50;9.13;;;5.80;99.90;;;;;;5001346;28;20694;-80
2022/01/11 10:42:53;;;;;;;18.00;10.23;;;5.80;99.90;;;;;;5001496;28;20711;-78
2022/01/11 10:45:30;;;;;;;19.30;10.17;;;5.90;99.90;;;;;;5001815;28;20777;-78
2022/01/11 10:48:03;;;;;;;14.47;9.80;;;5.90;99.90;;;;;;5001343;28;20628;-82
2022/01/11 10:50:34;;;;;;;16.40;8.83;;;6.00;99.90;;;;;;4999501;28;20650;-81
2022/01/11 10:53:21;;;;;;;16.20;9.23;;;5.80;99.90;;;;;;5003204;28;20629;-79
2022/01/11 10:55:58;;;;;;;15.50;9.40;;;5.80;99.90;;;;;;5001687;28;20661;-79
2022/01/11 10:58:25;;;;;;;17.50;9.33;;;5.90;99.90;;;;;;5000486;28;20619;-81
2022/01/11 11:00:52;;;;;;;15.70;9.00;;;5.90;99.90;;;;;;5006252;28;20627;-79
2022/01/11 11:03:23;;;;;;;14.80;9.30;;;5.90;99.90;;;;;;5008192;28;20663;-79
2022/01/11 11:05:53;;;;;;;13.70;9.07;;;5.90;99.90;;;;;;5004182;28;20722;-79
2022/01/11 11:08:31;;;;;;;16.00;9.77;;;6.00;99.90;;;;;;5012840;28;20624;-80
2022/01/11 11:10:56;;;;;;;19.50;9.37;;;6.00;99.90;;;;;;5011030;28;20618;-80
2022/01/11 11:13:37;;;;;;;14.17;9.17;;;6.00;99.90;;;;;;5005801;28;20620;-81
2022/01/11 11:16:13;;;;;;;21.77;9.70;;;6.10;99.90;;;;;;5004799;28;20217;-79
2022/01/11 11:18:45;;;;;;;16.00;9.57;;;6.00;99.90;;;;;;5006750;28;20661;-79
2022/01/11 11:21:18;;;;;;;17.00;10.77;;;5.90;99.90;;;;;;5010832;28;21312;-79
2022/01/11 11:23:44;;;;;;;13.27;8.87;;;5.90;99.90;;;;;;5009298;28;20651;-79
2022/01/11 11:26:10;;;;;;;14.60;9.50;;;6.00;99.90;;;;;;5005781;28;20680;-79
2022/01/11 11:28:38;;;;;;;16.50;10.00;;;6.00;99.90;;;;;;5005444;28;20637;-81
2022/01/11 11:31:03;;;;;;;13.93;9.97;;;6.10;99.90;;;;;;5010992;28;20190;-81
2022/01/11 11:33:29;;;;;;;16.80;8.97;;;6.00;99.90;;;;;;5008141;28;20636;-79
2022/01/11 11:35:57;;;;;;;16.90;10.27;;;6.10;99.90;;;;;;5009013;28;20229;-81
2022/01/11 11:38:31;;;;;;;14.77;9.10;;;6.20;99.90;;;;;;5001383;28;20629;-79
2022/01/11 11:40:59;;;;;;;19.20;9.63;;;6.40;99.90;;;;;;5008215;28;20597;-79
2022/01/11 11:43:25;;;;;;;14.20;9.53;;;6.10;99.90;;;;;;5012175;28;20660;-84
2022/01/11 11:45:51;;;;;;;15.20;9.70;;;6.10;99.90;;;;;;5004081;28;20658;-80
2022/01/11 11:48:20;;;;;;;16.70;9.13;;;6.20;99.90;;;;;;5005328;28;20628;-80
2022/01/11 11:51:02;;;;;;;15.07;8.73;;;6.00;99.90;;;;;;5005757;28;20617;-79
2022/01/11 11:53:37;;;;;;;17.20;9.57;;;6.10;99.90;;;;;;5007266;28;20624;-79
2022/01/11 11:56:11;;;;;;;14.17;8.77;;;6.10;99.90;;;;;;5002890;28;20647;-80
2022/01/11 11:58:44;;;;;;;15.30;8.17;;;5.80;99.90;;;;;;5003101;28;20623;-79
2022/01/11 12:01:28;;;;;;;13.40;8.53;;;5.90;99.90;;;;;;5002230;28;20593;-79
2022/01/11 12:03:54;;;;;;;15.23;9.53;;;6.00;99.90;;;;;;4999755;28;20664;-78
2022/01/11 12:06:31;;;;;;;16.93;9.37;;;6.10;99.90;;;;;;5004109;28;20693;-79
2022/01/11 12:09:21;;;;;;;14.43;8.93;;;6.20;99.90;;;;;;5004608;28;20872;-78
2022/01/11 12:11:50;;;;;;;11.10;8.73;;;6.20;99.90;;;;;;4994470;28;20620;-78
2022/01/11 12:14:34;;;;;;;16.50;9.20;;;6.30;99.90;;;;;;5003047;28;20608;-79
2022/01/11 12:17:16;;;;;;;21.43;8.50;;;6.30;99.90;;;;;;5000205;28;20656;-78
2022/01/11 12:19:46;;;;;;;11.60;7.80;;;6.50;99.90;;;;;;5003894;28;20640;-79
2022/01/11 12:22:12;;;;;;;14.87;8.13;;;6.50;99.90;;;;;;4998879;28;20719;-83
2022/01/11 12:24:44;;;;;;;11.90;8.00;;;6.50;99.90;;;;;;5002233;28;20723;-79
2022/01/11 12:27:10;;;;;;;13.03;7.60;;;6.40;99.90;;;;;;5003783;28;20217;-79
2022/01/11 12:29:50;;;;;;;13.20;8.70;;;6.40;99.90;;;;;;5003866;28;21188;-81
2022/01/11 12:32:18;;;;;;;13.03;8.67;;;6.40;99.90;;;;;;5001851;28;20596;-85
2022/01/11 12:34:48;;;;;;;13.70;9.20;;;6.40;99.90;;;;;;5001954;28;21228;-79
2022/01/11 12:37:33;;;;;;;11.50;8.47;;;6.40;99.90;;;;;;5001936;28;20717;-78
2022/01/11 12:40:01;;;;;;;17.77;9.10;;;6.20;99.90;;;;;;4997451;28;20636;-81
2022/01/11 12:42:28;;;;;;;12.33;7.27;;;6.40;99.90;;;;;;5000195;28;20628;-79